Time;durP1;ratioP1;P1;durP2;ratioP2;P2;SDS_P1;SDS_P2;PMS_P1;PMS_P2;Temp;Humidity;BMP_temperature;BMP_pressure;BME280_temperature;BME280_humidity;BME280_pressure;Samples;Min_cycle;Max_cycle;Signal;HPM_P1;HPM_P2
2021/01/04 00:02:47;;;;;;;9.50;7.80;;;2.80;99.90;;;;;;6073850;23;20122;-94
2021/01/04 00:05:54;;;;;;;8.75;7.47;;;2.80;99.90;;;;;;6075565;23;20065;-93
2021/01/04 00:08:51;;;;;;;12.55;8.27;;;2.80;99.90;;;;;;6073259;23;20045;-94
2021/01/04 00:12:00;;;;;;;;;;;;;;;;;;;;;
2021/01/04 00:14:46;;;;;;;9.48;8.02;;;2.90;99.90;;;;;;6097148;23;20074;-94
2021/01/04 00:17:49;;;;;;;11.02;8.20;;;2.90;99.90;;;;;;6072736;23;20019;-93
2021/01/04 00:20:36;;;;;;;9.60;7.72;;;2.90;99.90;;;;;;5930738;24;20021;-94
2021/01/04 00:23:50;;;;;;;10.05;7.18;;;2.90;99.90;;;;;;5845390;24;20057;-94
2021/01/04 00:26:37;;;;;;;;;;;;;;;;;;;;;
2021/01/04 00:29:14;;;;;;;9.20;7.88;;;3.00;99.90;;;;;;5844884;24;20510;-93
2021/01/04 00:32:05;;;;;;;8.88;6.90;;;3.00;99.90;;;;;;5840682;24;20101;-94
2021/01/04 00:34:59;;;;;;;9.68;7.18;;;3.00;99.90;;;;;;5845168;24;20364;-93
2021/01/04 00:38:26;;;;;;;9.05;6.68;;;3.00;99.90;;;;;;5844639;24;20029;-94
2021/01/04 00:41:09;;;;;;;8.98;6.57;;;3.00;99.90;;;;;;5893943;24;20025;-93
2021/01/04 00:43:58;;;;;;;9.15;7.10;;;3.00;99.90;;;;;;5930708;24;20396;-93
2021/01/04 00:46:46;;;;;;;8.70;6.82;;;3.00;99.90;;;;;;5930554;24;20017;-93
2021/01/04 00:49:35;;;;;;;9.18;7.00;;;3.00;99.90;;;;;;5931466;24;20025;-93
2021/01/04 00:52:32;;;;;;;9.68;7.10;;;3.00;99.90;;;;;;5930928;24;20032;-95
2021/01/04 00:55:55;;;;;;;9.32;6.82;;;3.00;99.90;;;;;;5844827;24;20375;-93
2021/01/04 00:59:05;;;;;;;10.75;7.15;;;3.00;99.90;;;;;;5959992;23;20032;-93
2021/01/04 01:02:04;;;;;;;9.60;7.30;;;3.00;99.90;;;;;;5980921;23;20024;-93
2021/01/04 01:05:16;;;;;;;;;;;;;;;;;;;;;
2021/01/04 01:08:23;;;;;;;9.30;7.25;;;2.90;99.90;;;;;;5981343;23;20095;-93
2021/01/04 01:11:13;;;;;;;;;;;;;;;;;;;;;
2021/01/04 01:14:32;;;;;;;9.23;7.45;;;2.90;99.90;;;;;;6073434;23;20022;-93
2021/01/04 01:17:40;;;;;;;8.90;7.18;;;2.90;99.90;;;;;;5962366;24;20028;-93
2021/01/04 01:20:23;;;;;;;9.95;7.82;;;2.90;99.90;;;;;;5958908;23;20401;-93
2021/01/04 01:23:06;;;;;;;;;;;;;;;;;;;;;
2021/01/04 01:26:13;;;;;;;7.85;6.95;;;2.90;99.90;;;;;;5981915;24;20095;-92
2021/01/04 01:29:20;;;;;;;7.65;6.80;;;2.80;99.90;;;;;;5877186;24;20022;-92
2021/01/04 01:32:21;;;;;;;7.55;6.75;;;2.90;99.90;;;;;;5878115;24;20028;-92
2021/01/04 01:35:00;;;;;;;9.75;6.97;;;2.80;99.90;;;;;;5889716;24;20020;-93
2021/01/04 01:38:15;;;;;;;;;;;;;;;;;;;;;
2021/01/04 01:41:32;;;;;;;8.55;7.05;;;2.80;99.90;;;;;;5982895;23;20077;-92
2021/01/04 01:44:06;;;;;;;9.88;7.00;;;2.70;99.90;;;;;;5872840;24;20021;-93
2021/01/04 01:47:00;;;;;;;9.00;7.05;;;2.70;99.90;;;;;;5872597;24;20473;-93
2021/01/04 01:49:51;;;;;;;9.32;6.97;;;2.60;99.90;;;;;;5873135;24;20022;-92
2021/01/04 01:52:37;;;;;;;8.85;6.93;;;2.60;99.90;;;;;;5872765;24;20101;-93
2021/01/04 01:55:40;;;;;;;9.90;7.32;;;2.50;99.90;;;;;;5873128;24;20028;-93
2021/01/04 01:58:34;;;;;;;8.90;7.00;;;2.50;99.90;;;;;;5873014;24;20087;-93
2021/01/04 02:01:17;;;;;;;10.13;8.20;;;2.50;99.90;;;;;;5872839;24;20026;-93
2021/01/04 02:04:19;;;;;;;8.57;7.20;;;2.50;99.90;;;;;;5872737;24;20026;-94
2021/01/04 02:07:11;;;;;;;9.95;7.70;;;2.40;99.90;;;;;;5933620;24;20454;-93
2021/01/04 02:09:47;;;;;;;9.35;7.57;;;2.40;99.90;;;;;;5932319;24;20032;-93
2021/01/04 02:12:37;;;;;;;10.52;8.35;;;2.40;99.90;;;;;;5932279;24;20091;-92
2021/01/04 02:15:22;;;;;;;9.25;7.70;;;2.40;99.90;;;;;;5931492;24;20020;-93
2021/01/04 02:18:22;;;;;;;9.95;7.65;;;2.40;99.90;;;;;;5933248;24;20093;-93
2021/01/04 02:21:07;;;;;;;8.50;7.07;;;2.40;99.90;;;;;;5990728;23;20034;-93
2021/01/04 02:24:03;;;;;;;9.13;6.97;;;2.40;99.90;;;;;;6075076;23;20022;-94
2021/01/04 02:26:52;;;;;;;9.75;7.78;;;2.40;99.90;;;;;;6076162;23;20022;-93
2021/01/04 02:29:21;;;;;;;7.78;6.03;;;2.40;99.90;;;;;;6073783;23;20510;-93
2021/01/04 02:32:04;;;;;;;;;;;;;;;;;;;;;
2021/01/04 02:34:43;;;;;;;9.13;6.85;;;2.30;99.90;;;;;;6098659;23;20022;-93
2021/01/04 02:37:11;;;;;;;;;;;2.30;99.90;;;;;;6074091;23;20320;-93
2021/01/04 02:39:53;;;;;;;9.40;6.75;;;2.20;99.90;;;;;;6073110;23;20382;-93
2021/01/04 02:42:47;;;;;;;9.07;6.72;;;2.20;99.90;;;;;;6073585;23;20069;-93
2021/01/04 02:45:16;;;;;;;8.50;6.63;;;2.20;99.90;;;;;;6073681;23;20018;-93
2021/01/04 02:48:03;;;;;;;7.45;6.43;;;2.20;99.90;;;;;;6074147;23;20022;-94
2021/01/04 02:51:02;;;;;;;8.60;6.70;;;2.20;99.90;;;;;;6073581;23;20019;-94
2021/01/04 02:54:07;;;;;;;7.80;5.72;;;2.10;99.90;;;;;;6073947;23;20485;-93
2021/01/04 02:56:47;;;;;;;8.93;6.40;;;2.10;99.90;;;;;;6073866;23;20021;-92
2021/01/04 02:59:53;;;;;;;10.90;6.63;;;2.10;99.90;;;;;;6078268;23;20023;-93
2021/01/04 03:02:35;;;;;;;10.40;6.40;;;2.10;99.90;;;;;;6074459;23;20042;-93
2021/01/04 03:05:13;;;;;;;9.18;6.35;;;2.20;99.90;;;;;;6073275;23;20266;-94
2021/01/04 03:07:55;;;;;;;9.52;6.53;;;2.20;99.90;;;;;;6074452;23;20018;-94
2021/01/04 03:10:38;;;;;;;7.88;5.93;;;2.30;99.90;;;;;;6075715;23;20021;-94
2021/01/04 03:13:38;;;;;;;8.10;6.50;;;2.30;99.90;;;;;;6073245;23;20439;-94
2021/01/04 03:17:00;;;;;;;7.10;5.40;;;2.40;99.90;;;;;;5931966;24;20021;-93
2021/01/04 03:19:41;;;;;;;7.80;5.63;;;2.40;99.90;;;;;;5934549;24;20455;-93
2021/01/04 03:22:15;;;;;;;6.65;5.57;;;2.50;99.90;;;;;;5931726;24;20388;-92
2021/01/04 03:24:52;;;;;;;7.97;6.40;;;2.50;99.90;;;;;;5932313;24;20025;-92
2021/01/04 03:27:26;;;;;;;8.65;6.57;;;2.60;99.90;;;;;;5931487;24;20016;-92
2021/01/04 03:30:23;;;;;;;;;;;;;;;;;;;;;
2021/01/04 03:32:59;;;;;;;9.65;6.93;;;2.60;99.90;;;;;;5954341;24;20020;-95
2021/01/04 03:35:36;;;;;;;9.60;7.10;;;2.60;99.90;;;;;;5933020;24;20051;-94
2021/01/04 03:38:12;;;;;;;8.68;7.35;;;2.60;99.90;;;;;;5932533;24;20025;-95
2021/01/04 03:40:43;;;;;;;9.90;7.95;;;2.60;99.90;;;;;;5931469;24;20031;-95
2021/01/04 03:43:30;;;;;;;11.38;7.53;;;2.60;99.90;;;;;;5931050;24;20428;-95
2021/01/04 03:46:25;;;;;;;;;;;;;;;;;;;;;
2021/01/04 03:49:11;;;;;;;10.95;7.80;;;2.60;99.90;;;;;;5953994;24;20025;-95
2021/01/04 03:51:56;;;;;;;10.48;8.45;;;2.70;99.90;;;;;;5930948;24;20084;-95
2021/01/04 03:54:50;;;;;;;11.15;8.43;;;2.70;99.90;;;;;;6073412;23;20025;-95
2021/01/04 04:00:28;;;;;;;11.10;8.32;;;2.60;99.90;;;;;;5927050;24;20499;-95
2021/01/04 04:03:08;;;;;;;11.18;8.20;;;2.60;99.90;;;;;;5926420;24;20077;-95
2021/01/04 04:05:58;;;;;;;12.65;8.88;;;2.60;99.90;;;;;;5844798;24;20076;-93
2021/01/04 04:08:55;;;;;;;11.88;8.27;;;2.60;99.90;;;;;;5818396;24;20081;-95
2021/01/04 04:11:23;;;;;;;10.38;7.22;;;2.60;99.90;;;;;;5818669;24;20098;-93
2021/01/04 04:14:07;;;;;;;;;;;;;;;;;;;;;
2021/01/04 04:16:36;;;;;;;14.02;7.75;;;2.50;99.90;;;;;;5818190;24;20019;-94
2021/01/04 04:19:19;;;;;;;;;;;;;;;;;;;;;
2021/01/04 04:22:34;;;;;;;10.65;7.80;;;2.40;99.90;;;;;;5847860;24;20056;-94
2021/01/04 04:25:10;;;;;;;9.65;7.60;;;2.40;99.90;;;;;;5953879;24;20055;-94
2021/01/04 04:27:43;;;;;;;9.63;7.38;;;2.40;99.90;;;;;;5979983;23;20023;-94
2021/01/04 04:30:21;;;;;;;11.57;7.68;;;2.30;99.90;;;;;;5981727;23;20024;-94
2021/01/04 04:32:58;;;;;;;12.25;7.93;;;2.30;99.90;;;;;;5981725;23;20445;-94
2021/01/04 04:35:30;;;;;;;11.00;7.82;;;2.30;99.90;;;;;;5958711;23;20024;-94
2021/01/04 04:38:31;;;;;;;13.43;8.50;;;2.30;99.90;;;;;;6077373;23;20033;-94
2021/01/04 04:41:12;;;;;;;10.15;7.70;;;2.30;99.90;;;;;;6073224;23;20065;-94
2021/01/04 04:43:46;;;;;;;9.55;7.10;;;2.20;99.90;;;;;;6072485;23;20023;-93
2021/01/04 04:46:47;;;;;;;12.18;7.65;;;2.20;99.90;;;;;;5989410;23;20023;-93
2021/01/04 04:49:51;;;;;;;12.77;7.28;;;2.20;99.90;;;;;;5986811;23;20024;-93
2021/01/04 04:53:13;;;;;;;;;;;;;;;;;;;;;
2021/01/04 04:56:02;;;;;;;11.10;7.47;;;2.20;99.90;;;;;;5953465;24;20053;-95
2021/01/04 04:58:50;;;;;;;9.80;7.60;;;2.20;99.90;;;;;;5930706;24;20021;-94
2021/01/04 05:01:27;;;;;;;12.10;7.68;;;2.10;99.90;;;;;;5931334;24;20016;-93
2021/01/04 05:04:15;;;;;;;10.38;7.32;;;2.00;99.90;;;;;;5930186;24;20048;-93
2021/01/04 05:06:48;;;;;;;10.90;7.95;;;2.00;99.90;;;;;;5953452;24;20020;-94
2021/01/04 05:09:18;;;;;;;11.18;8.13;;;2.00;99.90;;;;;;5930884;24;20205;-94
2021/01/04 05:12:19;;;;;;;13.73;8.77;;;2.00;99.90;;;;;;5953554;24;20024;-94
2021/01/04 05:15:11;;;;;;;11.00;7.47;;;2.00;99.90;;;;;;5850608;24;20026;-94
2021/01/04 05:17:44;;;;;;;11.52;7.18;;;2.00;99.90;;;;;;5885432;24;20473;-94
2021/01/04 05:20:45;;;;;;;12.05;7.40;;;2.00;99.90;;;;;;5903839;24;20032;-94
2021/01/04 05:23:16;;;;;;;10.90;7.03;;;2.00;99.90;;;;;;5903338;24;20108;-93
2021/01/04 05:26:26;;;;;;;12.38;7.85;;;2.00;99.90;;;;;;5904963;24;20028;-93
2021/01/04 05:29:47;;;;;;;10.30;7.47;;;2.00;99.90;;;;;;5905014;24;20033;-92
2021/01/04 05:32:55;;;;;;;10.75;7.45;;;2.00;99.90;;;;;;5935154;24;20157;-92
2021/01/04 05:35:27;;;;;;;10.27;7.28;;;2.00;99.90;;;;;;5981747;23;20120;-93
2021/01/04 05:38:28;;;;;;;10.55;7.47;;;2.00;99.90;;;;;;5959111;24;20044;-92
2021/01/04 05:41:09;;;;;;;11.43;8.57;;;2.10;99.90;;;;;;5959073;23;20024;-92
2021/01/04 05:44:09;;;;;;;11.30;7.90;;;2.10;99.90;;;;;;5958703;23;20113;-93
2021/01/04 05:47:07;;;;;;;10.02;7.78;;;2.10;99.90;;;;;;5960774;23;20475;-93
2021/01/04 05:49:57;;;;;;;11.68;7.95;;;2.20;99.90;;;;;;5976521;23;20024;-92
2021/01/04 05:52:31;;;;;;;10.60;8.07;;;2.20;99.90;;;;;;6072753;23;20018;-93
2021/01/04 05:55:07;;;;;;;11.43;8.20;;;2.20;99.90;;;;;;6073171;23;20024;-93
2021/01/04 05:57:57;;;;;;;12.98;8.60;;;2.20;99.90;;;;;;6074684;23;20455;-93
2021/01/04 06:00:38;;;;;;;10.73;8.45;;;2.20;99.90;;;;;;6077862;23;20078;-93
2021/01/04 06:03:29;;;;;;;11.50;8.50;;;2.20;99.90;;;;;;6075193;23;20021;-93
2021/01/04 06:06:31;;;;;;;13.40;8.88;;;2.20;99.90;;;;;;5990250;23;20030;-92
2021/01/04 06:09:16;;;;;;;;;;;2.20;99.90;;;;;;5986366;23;20026;-92
2021/01/04 06:12:09;;;;;;;13.07;9.20;;;2.20;99.90;;;;;;5988559;23;19918;-93
2021/01/04 06:15:26;;;;;;;12.20;8.70;;;2.20;99.90;;;;;;5907491;24;20290;-92
2021/01/04 06:18:13;;;;;;;12.55;8.93;;;2.30;99.90;;;;;;5927564;24;20474;-94
2021/01/04 06:21:15;;;;;;;12.18;8.88;;;2.30;99.90;;;;;;5907088;24;20032;-94
2021/01/04 06:24:08;;;;;;;12.70;9.65;;;2.30;99.90;;;;;;5909148;24;20105;-93
2021/01/04 06:27:05;;;;;;;;;;;;;;;;;;;;;
2021/01/04 06:30:15;;;;;;;12.88;9.07;;;2.40;99.90;;;;;;5848808;24;20026;-93
2021/01/04 06:33:05;;;;;;;12.70;9.52;;;2.40;99.90;;;;;;5876295;24;20025;-94
2021/01/04 06:36:30;;;;;;;;;;;;;;;;;;;;;
2021/01/04 06:39:11;;;;;;;15.27;9.90;;;2.40;99.90;;;;;;5818849;24;20456;-93
2021/01/04 06:42:52;;;;;;;13.73;9.55;;;2.40;99.90;;;;;;5823450;24;20030;-93
2021/01/04 06:45:41;;;;;;;13.07;9.35;;;2.50;99.90;;;;;;5825706;24;20172;-94
2021/01/04 06:48:27;;;;;;;13.63;9.65;;;2.50;99.90;;;;;;5846131;24;20026;-93
2021/01/04 06:51:32;;;;;;;12.05;8.85;;;2.50;99.90;;;;;;5845618;24;20029;-94
2021/01/04 06:54:23;;;;;;;;;;;;;;;;;;;;;
2021/01/04 06:57:38;;;;;;;12.32;9.00;;;2.50;99.90;;;;;;6050591;23;20055;-94
2021/01/04 07:00:48;;;;;;;;;;;;;;;;;;;;;
2021/01/04 07:04:23;;;;;;;12.38;9.50;;;2.60;99.90;;;;;;5973252;24;20048;-94
2021/01/04 07:07:49;;;;;;;10.88;8.50;;;2.60;99.90;;;;;;5863830;24;20455;-95
2021/01/04 07:10:42;;;;;;;11.55;9.07;;;2.60;99.90;;;;;;5842412;24;20030;-92
2021/01/04 07:13:31;;;;;;;10.95;9.48;;;2.60;99.90;;;;;;5840940;24;20039;-93
2021/01/04 07:16:28;;;;;;;12.30;8.73;;;2.60;99.90;;;;;;5818255;24;20102;-94
2021/01/04 07:19:05;;;;;;;12.75;8.70;;;2.60;99.90;;;;;;5818866;24;20528;-91
2021/01/04 07:21:51;;;;;;;11.70;9.38;;;2.60;99.90;;;;;;5866260;24;20028;-90
2021/01/04 07:24:18;;;;;;;11.82;9.40;;;2.60;99.90;;;;;;5928448;24;20017;-90
2021/01/04 07:26:55;;;;;;;13.77;9.55;;;2.60;99.90;;;;;;5957996;23;20453;-90
2021/01/04 07:29:43;;;;;;;12.95;9.57;;;2.60;99.90;;;;;;5980764;23;20036;-91
2021/01/04 07:32:19;;;;;;;11.23;9.23;;;2.60;99.90;;;;;;5958932;23;20024;-90
2021/01/04 07:34:48;;;;;;;10.65;8.82;;;2.60;99.90;;;;;;5984137;24;20333;-91
2021/01/04 07:37:57;;;;;;;;;;;;;;;;;;;;;
2021/01/04 07:40:53;;;;;;;11.02;8.38;;;2.60;99.90;;;;;;5981902;24;20043;-94
2021/01/04 07:43:54;;;;;;;11.60;9.13;;;2.60;99.90;;;;;;5962363;23;20028;-94
2021/01/04 07:46:30;;;;;;;11.02;8.55;;;2.70;99.90;;;;;;5993960;23;20031;-90
2021/01/04 07:49:16;;;;;;;9.52;7.72;;;2.70;99.90;;;;;;6070103;23;20026;-89
2021/01/04 07:51:54;;;;;;;9.05;7.32;;;2.70;99.90;;;;;;6071566;23;20028;-89
2021/01/04 07:54:50;;;;;;;8.50;6.45;;;2.80;99.90;;;;;;6071757;23;20443;-89
2021/01/04 07:57:45;;;;;;;8.23;6.30;;;2.80;99.90;;;;;;6070948;23;20529;-89
2021/01/04 08:00:45;;;;;;;8.00;6.28;;;2.90;99.90;;;;;;6072595;23;20117;-89
2021/01/04 08:03:42;;;;;;;7.40;5.70;;;3.00;99.90;;;;;;6072339;23;20014;-90
2021/01/04 08:06:50;;;;;;;7.07;5.63;;;3.00;99.90;;;;;;6071470;23;20481;-90
2021/01/04 08:09:59;;;;;;;7.40;5.35;;;3.00;99.90;;;;;;6072395;23;20018;-90
2021/01/04 08:12:47;;;;;;;6.30;5.28;;;3.10;99.90;;;;;;6072508;23;20025;-90
2021/01/04 08:15:35;;;;;;;7.28;6.50;;;3.10;99.90;;;;;;6071961;23;20022;-91
2021/01/04 08:18:10;;;;;;;7.23;5.70;;;3.10;99.90;;;;;;6077269;23;20029;-91
2021/01/04 08:20:44;;;;;;;6.65;5.65;;;3.10;99.90;;;;;;6073786;23;20033;-90
2021/01/04 08:23:55;;;;;;;5.93;5.15;;;3.20;99.90;;;;;;6072681;23;20014;-90
2021/01/04 08:26:34;;;;;;;7.82;6.00;;;3.20;99.90;;;;;;5930845;24;20053;-91
2021/01/04 08:29:03;;;;;;;6.68;5.60;;;3.20;99.90;;;;;;5930724;24;20025;-90
2021/01/04 08:32:05;;;;;;;7.38;6.07;;;3.20;99.90;;;;;;5930400;24;20025;-90
2021/01/04 08:34:40;;;;;;;7.07;5.97;;;3.20;99.90;;;;;;5930247;24;20020;-91
2021/01/04 08:37:07;;;;;;;7.47;6.60;;;3.20;99.90;;;;;;5930553;24;20077;-90
2021/01/04 08:39:39;;;;;;;8.98;7.18;;;3.30;99.90;;;;;;5930752;24;20032;-91
2021/01/04 08:42:22;;;;;;;9.05;6.82;;;3.30;99.90;;;;;;5930775;24;20111;-90
2021/01/04 08:45:10;;;;;;;8.57;7.18;;;3.30;99.90;;;;;;5930541;24;20025;-90
2021/01/04 08:47:50;;;;;;;9.65;8.13;;;3.30;99.90;;;;;;5953477;24;20092;-90
2021/01/04 08:50:23;;;;;;;9.57;8.05;;;3.30;99.90;;;;;;5930845;24;20028;-91
2021/01/04 08:52:56;;;;;;;10.43;7.57;;;3.30;99.90;;;;;;5930869;24;20017;-91
2021/01/04 08:55:29;;;;;;;13.40;8.00;;;3.40;99.90;;;;;;5930772;24;20024;-91
2021/01/04 08:58:14;;;;;;;9.52;8.18;;;3.30;99.90;;;;;;5930528;24;20073;-91
2021/01/04 09:00:41;;;;;;;10.07;8.10;;;3.40;99.90;;;;;;5930234;24;20048;-91
2021/01/04 09:03:19;;;;;;;10.30;8.73;;;3.40;99.90;;;;;;6018070;23;20335;-91
2021/01/04 09:05:48;;;;;;;10.10;7.97;;;3.40;99.90;;;;;;6067539;23;20089;-91
2021/01/04 09:08:29;;;;;;;9.23;7.60;;;3.40;99.90;;;;;;6067547;23;20026;-90
2021/01/04 09:11:03;;;;;;;11.25;8.32;;;3.40;99.90;;;;;;6067343;23;20022;-91
2021/01/04 09:13:36;;;;;;;9.18;7.85;;;3.40;99.90;;;;;;6067155;23;20041;-90
2021/01/04 09:16:17;;;;;;;11.63;8.00;;;3.40;99.90;;;;;;6067323;23;20023;-91
2021/01/04 09:18:47;;;;;;;10.13;8.23;;;3.40;99.90;;;;;;6067137;23;20466;-92
2021/01/04 09:21:26;;;;;;;10.68;7.47;;;3.40;99.90;;;;;;6067188;23;20022;-90
2021/01/04 09:24:03;;;;;;;11.48;8.57;;;3.40;99.90;;;;;;6067281;23;20086;-91
2021/01/04 09:26:35;;;;;;;10.63;8.60;;;3.40;99.90;;;;;;6067146;23;20106;-90
2021/01/04 09:29:04;;;;;;;11.98;7.95;;;3.40;99.90;;;;;;6067047;23;20015;-90
2021/01/04 09:31:32;;;;;;;10.18;8.82;;;3.40;99.90;;;;;;6067776;23;20025;-90
2021/01/04 09:33:59;;;;;;;11.90;8.50;;;3.40;99.90;;;;;;6073067;23;20023;-90
2021/01/04 09:36:28;;;;;;;11.13;8.98;;;3.40;99.90;;;;;;6074468;23;20019;-91
2021/01/04 09:39:10;;;;;;;10.40;9.25;;;3.50;99.90;;;;;;6061803;23;20038;-91
2021/01/04 09:41:37;;;;;;;13.85;9.57;;;3.50;99.90;;;;;;6039132;23;20094;-91
2021/01/04 09:44:20;;;;;;;12.32;10.27;;;3.50;99.90;;;;;;6038621;23;20023;-91
2021/01/04 09:46:51;;;;;;;11.63;9.20;;;3.50;99.90;;;;;;6038556;23;20452;-91
2021/01/04 09:49:46;;;;;;;12.95;10.30;;;3.50;99.90;;;;;;6038798;23;20023;-91
2021/01/04 09:52:13;;;;;;;11.85;10.32;;;3.60;99.90;;;;;;6035347;23;20015;-91
2021/01/04 09:54:46;;;;;;;13.35;10.77;;;3.60;99.90;;;;;;6039824;23;20094;-90
2021/01/04 09:57:24;;;;;;;14.93;11.55;;;3.60;99.90;;;;;;6040258;23;20470;-90
2021/01/04 09:59:53;;;;;;;14.25;11.20;;;3.60;99.90;;;;;;6040424;23;20027;-91
2021/01/04 10:02:28;;;;;;;14.93;11.60;;;3.60;99.90;;;;;;6040547;23;20019;-91
2021/01/04 10:05:05;;;;;;;16.33;12.63;;;3.60;99.90;;;;;;6040179;23;20050;-91
2021/01/04 10:07:34;;;;;;;14.75;12.30;;;3.70;99.90;;;;;;6040387;23;20019;-91
2021/01/04 10:10:03;;;;;;;14.82;11.82;;;3.70;99.90;;;;;;6040338;23;20098;-90
2021/01/04 10:12:31;;;;;;;17.17;11.88;;;3.70;99.90;;;;;;6040077;23;20022;-91
2021/01/04 10:15:07;;;;;;;14.40;11.75;;;3.70;99.90;;;;;;6039245;23;20023;-91
2021/01/04 10:17:59;;;;;;;14.60;11.65;;;3.70;99.90;;;;;;6040454;23;20475;-91
2021/01/04 10:20:47;;;;;;;15.43;11.90;;;3.70;99.90;;;;;;6040109;23;20026;-90
2021/01/04 10:23:22;;;;;;;14.73;11.60;;;3.70;99.90;;;;;;6039965;23;20015;-91
2021/01/04 10:25:58;;;;;;;16.42;12.07;;;3.70;99.90;;;;;;6040833;23;20515;-90
2021/01/04 10:28:36;;;;;;;17.95;12.25;;;3.70;99.90;;;;;;6040501;23;20038;-90
2021/01/04 10:31:26;;;;;;;16.27;12.93;;;3.70;99.90;;;;;;6040465;23;20028;-90
2021/01/04 10:34:37;;;;;;;15.75;12.82;;;3.70;99.90;;;;;;6040075;23;20015;-91
2021/01/04 10:37:33;;;;;;;16.90;13.40;;;3.70;99.90;;;;;;5931816;24;20024;-91
2021/01/04 10:40:11;;;;;;;15.77;13.18;;;3.70;99.90;;;;;;5932703;24;20051;-91
2021/01/04 10:43:05;;;;;;;15.07;12.52;;;3.70;99.90;;;;;;5934021;24;20383;-91
2021/01/04 10:45:38;;;;;;;15.77;12.38;;;3.70;99.90;;;;;;5931533;24;20053;-90
2021/01/04 10:48:22;;;;;;;16.98;12.48;;;3.70;99.90;;;;;;5932013;24;20221;-90
2021/01/04 10:50:51;;;;;;;16.77;13.10;;;3.70;99.90;;;;;;5933057;24;20552;-91
2021/01/04 10:53:31;;;;;;;16.27;13.95;;;3.70;99.90;;;;;;5933497;24;20043;-90
2021/01/04 10:56:16;;;;;;;17.23;14.13;;;3.80;99.90;;;;;;5931671;24;20053;-90
2021/01/04 10:58:48;;;;;;;18.33;13.35;;;3.70;99.90;;;;;;5931569;24;20016;-90
2021/01/04 11:01:21;;;;;;;18.58;15.00;;;3.70;99.90;;;;;;5931108;24;20065;-90
2021/01/04 11:03:54;;;;;;;17.77;13.75;;;3.70;99.90;;;;;;5931466;24;20115;-89
2021/01/04 11:06:30;;;;;;;16.60;14.40;;;3.70;99.90;;;;;;5934098;24;20115;-90
2021/01/04 11:08:58;;;;;;;19.08;14.25;;;3.70;99.90;;;;;;6041746;23;20015;-90
2021/01/04 11:11:48;;;;;;;19.50;14.93;;;3.80;99.90;;;;;;6039828;23;20024;-90
2021/01/04 11:14:23;;;;;;;17.85;14.30;;;3.90;99.90;;;;;;6038839;23;20020;-91
2021/01/04 11:17:21;;;;;;;18.88;14.80;;;3.90;99.90;;;;;;6039617;23;20377;-90
2021/01/04 11:19:48;;;;;;;19.48;16.25;;;3.90;99.90;;;;;;6039623;23;20428;-90
2021/01/04 11:22:22;;;;;;;22.48;16.35;;;4.00;99.90;;;;;;6039299;23;20026;-90
2021/01/04 11:24:49;;;;;;;20.33;15.93;;;4.00;99.90;;;;;;6039444;23;20030;-90
2021/01/04 11:27:16;;;;;;;21.85;16.02;;;4.00;99.90;;;;;;6039638;23;20357;-90
2021/01/04 11:29:43;;;;;;;23.90;17.15;;;4.10;99.90;;;;;;6039947;23;20023;-90
2021/01/04 11:32:11;;;;;;;20.45;16.52;;;4.10;99.90;;;;;;6039839;23;20019;-89
2021/01/04 11:34:48;;;;;;;23.13;15.77;;;4.10;99.90;;;;;;6039116;23;20026;-90
2021/01/04 11:37:18;;;;;;;20.45;16.25;;;4.10;99.90;;;;;;6039369;23;20034;-90
2021/01/04 11:39:59;;;;;;;21.02;17.30;;;4.10;99.90;;;;;;6075704;23;20025;-90
2021/01/04 11:42:25;;;;;;;17.95;15.82;;;4.20;99.90;;;;;;6073036;23;20172;-93
2021/01/04 11:44:52;;;;;;;20.63;16.27;;;4.20;99.90;;;;;;6073204;23;20093;-90
2021/01/04 11:47:46;;;;;;;18.33;15.40;;;4.30;99.90;;;;;;6073137;23;20078;-93
2021/01/04 11:50:18;;;;;;;21.05;15.73;;;4.40;99.90;;;;;;6061055;23;20085;-90
2021/01/04 11:52:46;;;;;;;20.40;15.82;;;4.40;99.90;;;;;;6072820;23;20510;-91
2021/01/04 11:55:14;;;;;;;18.92;15.15;;;4.50;99.90;;;;;;6072746;23;20323;-90
2021/01/04 11:57:41;;;;;;;19.25;16.13;;;4.60;99.90;;;;;;6072919;23;20363;-91
2021/01/04 12:00:43;;;;;;;;;;;;;;;;;;;;;
2021/01/04 12:03:15;;;;;;;19.70;14.68;;;4.80;99.90;;;;;;6098391;23;20106;-96
2021/01/04 12:06:22;;;;;;;19.50;15.45;;;4.90;99.90;;;;;;5988461;23;20032;-94
2021/01/04 12:09:15;;;;;;;19.42;14.55;;;4.90;99.90;;;;;;5916104;24;20025;-94
2021/01/04 12:12:16;;;;;;;18.02;14.13;;;5.00;99.90;;;;;;5925449;24;20028;-94
2021/01/04 12:18:08;;;;;;;20.27;14.38;;;5.10;99.90;;;;;;5841452;24;20053;-87
2021/01/04 12:20:35;;;;;;;16.60;13.55;;;5.20;99.90;;;;;;5842095;24;20026;-90
2021/01/04 12:23:43;;;;;;;;;;;;;;;;;;;;;
2021/01/04 12:27:25;;;;;;;;;;;;;;;;;;;;;
2021/01/04 12:30:31;;;;;;;;;;;;;;;;;;;;;
2021/01/04 12:33:24;;;;;;;;;;;;;;;;;;;;;
2021/01/04 12:36:24;;;;;;;16.48;13.60;;;5.20;99.90;;;;;;5765648;24;20037;-94
2021/01/04 12:39:25;;;;;;;;;;;;;;;;;;;;;
2021/01/04 12:42:19;;;;;;;17.52;12.55;;;5.20;99.90;;;;;;5791688;24;20118;-93
2021/01/04 12:48:02;;;;;;;;;;;;;;;;;;;;;
2021/01/04 12:51:27;;;;;;;;;;;;;;;;;;;;;
2021/01/04 12:54:48;;;;;;;;;;;;;;;;;;;;;
2021/01/04 12:58:06;;;;;;;;;;;;;;;;;;;;;
2021/01/04 13:04:16;;;;;;;16.00;13.05;;;5.20;99.90;;;;;;5842434;24;20135;-94
2021/01/04 13:07:13;;;;;;;;;;;;;;;;;;;;;
2021/01/04 13:10:10;;;;;;;14.23;11.50;;;5.30;99.90;;;;;;5763915;24;20350;-93
2021/01/04 13:12:48;;;;;;;;;;;;;;;;;;;;;
2021/01/04 13:15:26;;;;;;;17.15;12.10;;;5.40;99.90;;;;;;5877210;24;20027;-93
2021/01/04 13:17:53;;;;;;;15.07;12.35;;;5.50;99.90;;;;;;5981427;24;20017;-93
2021/01/04 13:20:36;;;;;;;14.80;13.18;;;5.50;99.90;;;;;;5981451;23;20076;-93
2021/01/04 13:23:16;;;;;;;16.95;11.65;;;5.60;99.90;;;;;;5981084;23;20091;-91
2021/01/04 13:25:52;;;;;;;21.35;12.48;;;5.60;99.90;;;;;;6067471;23;20439;-92
2021/01/04 13:28:29;;;;;;;;;;;;;;;;;;;;;
2021/01/04 13:31:04;;;;;;;14.15;11.85;;;5.80;99.90;;;;;;6099362;23;20029;-92
2021/01/04 13:33:43;;;;;;;;;;;;;;;;;;;;;
2021/01/04 13:36:22;;;;;;;;;;;;;;;;;;;;;
2021/01/04 13:39:01;;;;;;;;;;;;;;;;;;;;;
2021/01/04 13:41:42;;;;;;;13.52;11.40;;;6.00;99.90;;;;;;6099851;23;20022;-93
2021/01/04 13:44:25;;;;;;;;;;;;;;;;;;;;;
2021/01/04 13:47:04;;;;;;;14.85;12.10;;;6.20;99.90;;;;;;6099024;23;20018;-93
2021/01/04 13:49:36;;;;;;;17.63;11.73;;;6.20;99.90;;;;;;6074472;23;20022;-93
2021/01/04 13:52:09;;;;;;;14.68;10.43;;;6.20;99.90;;;;;;6074816;23;20018;-93
2021/01/04 13:54:38;;;;;;;;;;;6.20;99.90;;;;;;6074294;23;20093;-93
2021/01/04 13:57:16;;;;;;;14.03;11.23;;;6.20;99.90;;;;;;6075611;23;19992;-93
2021/01/04 13:59:51;;;;;;;16.40;10.80;;;6.20;99.90;;;;;;6074614;23;20054;-92
2021/01/04 14:02:29;;;;;;;12.48;10.38;;;6.20;99.90;;;;;;6075142;23;20192;-93
2021/01/04 14:05:20;;;;;;;14.95;11.60;;;6.20;99.90;;;;;;6077192;23;20018;-94
2021/01/04 14:07:58;;;;;;;18.65;11.68;;;6.20;99.90;;;;;;6075545;23;20037;-93
2021/01/04 14:10:40;;;;;;;11.95;9.60;;;6.30;99.90;;;;;;6075737;23;20364;-93
2021/01/04 14:13:22;;;;;;;12.82;10.00;;;6.30;99.90;;;;;;6073598;23;20111;-92
2021/01/04 14:15:55;;;;;;;13.07;8.98;;;6.30;99.90;;;;;;6074293;23;20018;-92
2021/01/04 14:18:25;;;;;;;11.82;8.10;;;6.30;99.90;;;;;;6075065;23;20438;-92
2021/01/04 14:21:03;;;;;;;10.38;7.38;;;6.30;99.90;;;;;;6073609;23;20022;-93
2021/01/04 14:24:02;;;;;;;8.85;6.22;;;6.40;99.90;;;;;;6077005;23;20094;-92
2021/01/04 14:26:35;;;;;;;7.70;5.88;;;6.40;99.90;;;;;;6074354;23;20085;-93
2021/01/04 14:29:09;;;;;;;7.72;5.10;;;6.50;99.90;;;;;;6075637;23;20026;-92
2021/01/04 14:31:50;;;;;;;7.70;4.30;;;6.50;99.90;;;;;;6075713;23;20077;-93
2021/01/04 14:34:20;;;;;;;5.93;3.63;;;6.50;99.90;;;;;;6073984;23;20085;-92
2021/01/04 14:36:51;;;;;;;5.82;3.75;;;6.60;99.90;;;;;;6074654;23;20018;-92
2021/01/04 14:39:21;;;;;;;4.25;2.92;;;6.60;99.90;;;;;;6081724;23;20050;-92
2021/01/04 14:42:06;;;;;;;6.60;3.25;;;6.60;99.90;;;;;;6084938;23;20018;-92
2021/01/04 14:44:47;;;;;;;;;;;;;;;;;;;;;
2021/01/04 14:47:21;;;;;;;10.80;3.38;;;6.60;99.90;;;;;;6098999;23;20019;-94
2021/01/04 14:50:07;;;;;;;4.80;2.95;;;6.60;99.90;;;;;;6074348;23;20023;-92
2021/01/04 14:53:05;;;;;;;6.20;3.08;;;6.60;99.90;;;;;;5991027;23;20341;-92
2021/01/04 14:56:02;;;;;;;;;;;;;;;;;;;;;
2021/01/04 14:58:47;;;;;;;;;;;;;;;;;;;;;
2021/01/04 15:02:12;;;;;;;;;;;;;;;;;;;;;
2021/01/04 15:05:06;;;;;;;5.00;2.50;;;6.40;99.90;;;;;;5925227;24;20021;-94
2021/01/04 15:07:59;;;;;;;;;;;;;;;;;;;;;
2021/01/04 15:10:33;;;;;;;5.03;2.65;;;6.30;99.90;;;;;;5972037;23;20088;-93
2021/01/04 15:13:03;;;;;;;3.03;2.10;;;6.30;99.90;;;;;;6005089;23;20022;-93
2021/01/04 15:15:33;;;;;;;4.72;1.65;;;6.20;99.90;;;;;;6073415;23;20542;-94
2021/01/04 15:18:13;;;;;;;4.65;1.73;;;6.20;99.90;;;;;;6074932;23;20014;-93
2021/01/04 15:21:10;;;;;;;;;;;;;;;;;;;;;
2021/01/04 15:23:41;;;;;;;;;;;6.20;99.90;;;;;;6011233;23;20098;-92
2021/01/04 15:26:17;;;;;;;4.15;1.40;;;6.10;99.90;;;;;;5987615;23;20011;-92
2021/01/04 15:28:44;;;;;;;3.63;1.60;;;6.10;99.90;;;;;;5986597;23;20024;-93
2021/01/04 15:31:23;;;;;;;;;;;;;;;;;;;;;
2021/01/04 15:33:53;;;;;;;1.98;1.55;;;6.10;99.90;;;;;;6010080;23;20037;-93